Time;durP1;ratioP1;P1;durP2;ratioP2;P2;SDS_P1;SDS_P2;PMS_P1;PMS_P2;Temp;Humidity;BMP_temperature;BMP_pressure;BME280_temperature;BME280_humidity;BME280_pressure;Samples;Min_cycle;Max_cycle;Signal;HPM_P1;HPM_P2
2022/08/16 00:01:17;;;;;;;14.45;8.25;;;22.40;66.80;;;;;;5114228;28;20088;-74
2022/08/16 00:03:43;;;;;;;12.80;8.13;;;22.30;66.70;;;;;;5114334;28;20024;-74
2022/08/16 00:06:09;;;;;;;11.80;8.07;;;22.20;66.90;;;;;;5113908;28;20024;-74
2022/08/16 00:08:35;;;;;;;10.50;7.80;;;22.20;67.10;;;;;;5114110;28;20032;-74
2022/08/16 00:11:01;;;;;;;12.48;7.78;;;22.20;67.00;;;;;;5114081;28;20077;-74
2022/08/16 00:13:27;;;;;;;11.80;7.00;;;22.30;66.80;;;;;;5114022;28;20024;-74
2022/08/16 00:15:52;;;;;;;10.77;7.72;;;22.30;66.40;;;;;;5114011;28;20050;-74
2022/08/16 00:18:19;;;;;;;9.88;7.55;;;22.20;66.50;;;;;;5113920;28;20056;-74
2022/08/16 00:20:46;;;;;;;10.43;7.18;;;22.20;66.20;;;;;;5113944;28;20031;-74
2022/08/16 00:23:13;;;;;;;12.60;7.65;;;22.00;66.30;;;;;;5113568;28;20028;-73
2022/08/16 00:25:39;;;;;;;12.38;8.40;;;22.00;66.80;;;;;;5113777;28;20038;-74
2022/08/16 00:28:05;;;;;;;11.98;8.45;;;22.00;67.10;;;;;;5113829;28;20028;-73
2022/08/16 00:30:31;;;;;;;11.23;7.75;;;21.90;67.50;;;;;;5113772;28;20020;-74
2022/08/16 00:32:59;;;;;;;12.38;8.45;;;21.80;67.70;;;;;;5113748;28;20027;-74
2022/08/16 00:35:29;;;;;;;16.40;9.13;;;21.80;67.70;;;;;;5113688;28;20016;-74
2022/08/16 00:37:58;;;;;;;11.43;8.50;;;21.70;68.00;;;;;;5113836;28;20016;-74
2022/08/16 00:40:31;;;;;;;12.18;8.18;;;21.80;68.20;;;;;;5113744;28;20020;-74
2022/08/16 00:42:56;;;;;;;12.52;8.32;;;21.80;68.30;;;;;;5113665;28;20043;-74
2022/08/16 00:45:37;;;;;;;12.00;8.55;;;21.70;68.30;;;;;;5113582;28;20028;-74
2022/08/16 00:48:06;;;;;;;12.40;8.85;;;21.70;68.10;;;;;;5113677;28;20027;-74
2022/08/16 00:50:34;;;;;;;13.90;9.57;;;21.70;68.50;;;;;;5113535;28;20050;-74
2022/08/16 00:53:00;;;;;;;14.65;9.07;;;21.70;68.80;;;;;;5113530;28;20020;-74
2022/08/16 00:55:27;;;;;;;15.00;9.15;;;21.80;68.70;;;;;;5113488;28;20042;-74
2022/08/16 00:57:56;;;;;;;14.18;9.90;;;21.80;68.50;;;;;;5113467;28;20023;-74
2022/08/16 01:00:26;;;;;;;13.93;9.07;;;21.80;68.50;;;;;;5113470;28;20021;-74
2022/08/16 01:02:55;;;;;;;13.23;8.40;;;21.70;68.50;;;;;;5113485;28;20024;-74
2022/08/16 01:05:21;;;;;;;16.55;10.50;;;21.70;68.50;;;;;;5113540;28;20021;-74
2022/08/16 01:07:47;;;;;;;16.70;9.77;;;21.70;68.10;;;;;;5113077;28;20055;-74
2022/08/16 01:10:13;;;;;;;14.52;9.02;;;21.70;67.80;;;;;;5113360;28;20036;-74
2022/08/16 01:12:39;;;;;;;15.00;8.30;;;21.50;67.90;;;;;;5113361;28;20012;-74
2022/08/16 01:15:06;;;;;;;13.73;8.80;;;21.40;67.90;;;;;;5113271;28;20028;-74
2022/08/16 01:17:33;;;;;;;12.15;8.95;;;21.30;68.50;;;;;;5113207;28;20114;-74
2022/08/16 01:20:05;;;;;;;14.80;9.63;;;21.10;68.70;;;;;;5113256;28;20043;-74
2022/08/16 01:22:42;;;;;;;15.40;9.40;;;21.10;69.30;;;;;;5113321;28;20055;-74
2022/08/16 01:25:17;;;;;;;12.30;8.65;;;21.10;69.00;;;;;;5113200;28;20034;-74
2022/08/16 01:27:51;;;;;;;15.00;9.55;;;21.20;68.70;;;;;;5113182;28;20103;-74
2022/08/16 01:30:22;;;;;;;12.05;8.90;;;21.30;68.30;;;;;;5113223;28;20055;-74
2022/08/16 01:32:50;;;;;;;15.50;9.83;;;21.20;68.20;;;;;;5113344;28;20016;-74
2022/08/16 01:35:21;;;;;;;16.00;9.90;;;21.10;68.40;;;;;;5114852;28;20024;-74
2022/08/16 01:37:50;;;;;;;15.23;10.15;;;21.00;69.10;;;;;;5117050;28;20024;-74
2022/08/16 01:40:18;;;;;;;14.52;9.98;;;21.00;69.60;;;;;;5116964;28;20024;-74
2022/08/16 01:42:45;;;;;;;15.77;9.65;;;21.10;69.40;;;;;;5116918;28;20032;-74
2022/08/16 01:45:12;;;;;;;16.30;10.45;;;21.10;69.60;;;;;;5116930;28;20487;-74
2022/08/16 01:47:39;;;;;;;15.30;10.02;;;21.10;69.30;;;;;;5116767;28;20059;-74
2022/08/16 01:50:06;;;;;;;15.27;9.85;;;21.20;69.20;;;;;;5116783;28;20023;-74
2022/08/16 01:52:32;;;;;;;15.80;9.70;;;21.10;68.80;;;;;;5116886;28;20016;-74
2022/08/16 01:54:58;;;;;;;13.10;9.52;;;21.10;68.80;;;;;;5116723;28;20024;-74
2022/08/16 01:57:25;;;;;;;18.17;10.43;;;20.90;69.10;;;;;;5116631;28;20024;-74
2022/08/16 01:59:51;;;;;;;13.98;9.82;;;20.80;69.60;;;;;;5116649;28;20119;-74
2022/08/16 02:02:16;;;;;;;14.35;10.00;;;20.90;69.70;;;;;;5116561;28;20024;-74
2022/08/16 02:04:42;;;;;;;13.60;9.80;;;21.00;69.60;;;;;;5116544;28;20054;-74
2022/08/16 02:07:08;;;;;;;14.30;9.98;;;21.00;69.40;;;;;;5116223;28;20047;-73
2022/08/16 02:09:36;;;;;;;14.63;10.10;;;21.00;69.30;;;;;;5116418;28;20020;-74
2022/08/16 02:12:05;;;;;;;14.55;10.20;;;21.00;69.30;;;;;;5116419;28;20059;-74
2022/08/16 02:14:32;;;;;;;16.23;10.13;;;21.00;69.10;;;;;;5116304;28;20024;-73
2022/08/16 02:17:00;;;;;;;16.00;10.63;;;21.00;69.20;;;;;;5116267;28;20049;-74
2022/08/16 02:19:28;;;;;;;16.58;10.65;;;20.80;70.40;;;;;;5116236;28;20024;-74
2022/08/16 02:21:55;;;;;;;15.90;10.38;;;20.80;70.00;;;;;;5116194;28;20047;-73
2022/08/16 02:24:21;;;;;;;16.70;11.18;;;20.70;70.30;;;;;;5116140;28;20020;-74
2022/08/16 02:26:48;;;;;;;16.63;10.50;;;20.70;70.50;;;;;;5116015;28;20024;-74
2022/08/16 02:29:17;;;;;;;16.60;10.70;;;20.80;70.10;;;;;;5115972;28;20095;-74
2022/08/16 02:31:43;;;;;;;16.25;10.13;;;20.70;70.10;;;;;;5116043;28;20020;-74
2022/08/16 02:34:09;;;;;;;16.20;11.00;;;20.70;69.80;;;;;;5116061;28;20079;-73
2022/08/16 02:36:35;;;;;;;15.77;11.00;;;20.60;70.10;;;;;;5115930;28;20028;-73
2022/08/16 02:39:02;;;;;;;15.40;10.50;;;20.50;70.20;;;;;;5115891;28;20058;-74
2022/08/16 02:41:27;;;;;;;17.90;10.65;;;20.50;70.20;;;;;;5115783;28;20040;-74
2022/08/16 02:43:53;;;;;;;17.17;10.80;;;20.40;70.30;;;;;;5114812;28;20032;-74
2022/08/16 02:46:19;;;;;;;15.52;10.77;;;20.50;70.70;;;;;;5115396;28;20032;-74
2022/08/16 02:48:44;;;;;;;18.55;11.05;;;20.50;70.80;;;;;;5115660;28;20038;-74
2022/08/16 02:51:10;;;;;;;16.33;10.90;;;20.50;70.80;;;;;;5115629;28;20384;-73
2022/08/16 02:53:40;;;;;;;16.98;10.65;;;20.50;70.90;;;;;;5115574;28;20028;-74
2022/08/16 02:56:06;;;;;;;19.13;10.80;;;20.40;71.20;;;;;;5115609;28;20024;-74
2022/08/16 02:58:32;;;;;;;16.08;10.70;;;20.30;71.60;;;;;;5115483;28;20028;-74
2022/08/16 03:00:58;;;;;;;19.33;11.18;;;20.20;72.30;;;;;;5115425;28;20034;-74
2022/08/16 03:03:25;;;;;;;16.52;10.52;;;20.10;72.60;;;;;;5115379;28;20039;-74
2022/08/16 03:05:52;;;;;;;16.90;10.50;;;20.10;72.70;;;;;;5115251;28;20032;-74
2022/08/16 03:08:19;;;;;;;18.75;10.25;;;20.20;72.90;;;;;;5115213;28;20095;-74
2022/08/16 03:10:47;;;;;;;17.02;10.18;;;20.20;72.90;;;;;;5115349;28;20032;-74
2022/08/16 03:13:12;;;;;;;16.52;10.40;;;20.20;72.90;;;;;;5115172;28;20016;-74
2022/08/16 03:15:38;;;;;;;16.42;9.82;;;20.20;73.10;;;;;;5115126;28;20050;-73
2022/08/16 03:18:04;;;;;;;17.70;10.35;;;20.10;73.00;;;;;;5115048;28;20035;-74
2022/08/16 03:20:29;;;;;;;14.82;9.63;;;20.20;73.20;;;;;;5115010;28;20032;-74
2022/08/16 03:22:55;;;;;;;17.05;9.88;;;20.10;73.00;;;;;;5114992;28;20028;-74
2022/08/16 03:25:21;;;;;;;15.60;9.75;;;20.00;73.40;;;;;;5114953;28;20083;-74
2022/08/16 03:27:46;;;;;;;15.77;10.02;;;20.00;73.40;;;;;;5114829;28;20065;-74
2022/08/16 03:30:21;;;;;;;13.45;9.50;;;20.10;73.50;;;;;;5114781;28;20033;-74
2022/08/16 03:32:48;;;;;;;16.35;9.88;;;20.20;73.20;;;;;;5114860;28;20020;-74
2022/08/16 03:35:15;;;;;;;15.90;9.75;;;20.30;72.80;;;;;;5114756;28;20071;-74
2022/08/16 03:37:43;;;;;;;15.20;9.88;;;20.30;72.30;;;;;;5114609;28;20020;-74
2022/08/16 03:40:09;;;;;;;14.30;9.68;;;20.30;72.00;;;;;;5114658;28;20020;-74
2022/08/16 03:42:35;;;;;;;15.52;9.65;;;20.20;72.00;;;;;;5114582;28;20028;-74
2022/08/16 03:45:01;;;;;;;14.02;9.45;;;20.30;72.00;;;;;;5114550;28;20039;-74
2022/08/16 03:47:28;;;;;;;16.45;9.90;;;20.30;71.80;;;;;;5114446;28;20052;-74
2022/08/16 03:49:55;;;;;;;15.70;9.77;;;20.30;71.90;;;;;;5114471;28;20031;-74
2022/08/16 03:52:22;;;;;;;13.65;9.48;;;20.20;72.00;;;;;;5114423;28;20025;-74
2022/08/16 03:54:48;;;;;;;16.48;10.15;;;20.10;72.30;;;;;;5114404;28;20027;-74
2022/08/16 03:57:14;;;;;;;17.85;10.23;;;20.00;72.40;;;;;;5113711;28;20048;-74
2022/08/16 03:59:40;;;;;;;13.77;9.38;;;19.80;73.00;;;;;;5114353;28;20012;-74
2022/08/16 04:02:06;;;;;;;16.65;10.25;;;19.70;73.50;;;;;;5114220;28;20028;-74
2022/08/16 04:04:34;;;;;;;16.85;9.10;;;19.70;73.80;;;;;;5114192;28;20087;-74
2022/08/16 04:07:02;;;;;;;14.05;9.38;;;19.70;73.90;;;;;;5113929;28;20044;-74
2022/08/16 04:09:29;;;;;;;15.10;9.27;;;19.80;74.10;;;;;;5114132;28;20020;-74
2022/08/16 04:11:54;;;;;;;14.73;9.60;;;19.90;73.90;;;;;;5114066;28;20028;-74
2022/08/16 04:14:20;;;;;;;12.90;9.40;;;19.90;73.80;;;;;;5114052;28;20017;-74
2022/08/16 04:16:45;;;;;;;15.48;10.10;;;19.90;73.70;;;;;;5113996;28;20387;-74
2022/08/16 04:19:11;;;;;;;15.70;9.90;;;20.00;73.60;;;;;;5113923;28;20039;-74
2022/08/16 04:21:37;;;;;;;14.23;9.85;;;19.90;73.60;;;;;;5112920;28;20035;-74
2022/08/16 04:24:03;;;;;;;15.52;9.57;;;19.90;73.70;;;;;;5112947;28;20024;-74
2022/08/16 04:26:29;;;;;;;16.63;9.95;;;19.90;73.90;;;;;;5113775;28;20115;-74
2022/08/16 04:28:55;;;;;;;15.70;10.00;;;19.90;73.90;;;;;;5113742;28;20024;-74
2022/08/16 04:31:20;;;;;;;13.32;9.35;;;19.90;73.70;;;;;;5113787;28;20031;-74
2022/08/16 04:33:46;;;;;;;15.98;10.35;;;19.90;73.70;;;;;;5113692;28;20028;-74
2022/08/16 04:36:12;;;;;;;14.15;9.45;;;19.90;73.50;;;;;;5113734;28;20028;-74
2022/08/16 04:38:37;;;;;;;18.33;10.32;;;19.90;73.50;;;;;;5113660;28;20032;-74
2022/08/16 04:41:03;;;;;;;15.13;9.68;;;19.90;73.50;;;;;;5113669;28;20032;-74
2022/08/16 04:43:28;;;;;;;15.07;9.50;;;19.90;73.80;;;;;;5113606;28;20031;-74
2022/08/16 04:45:54;;;;;;;14.73;9.90;;;19.90;73.70;;;;;;5113506;28;20051;-74
2022/08/16 04:48:20;;;;;;;15.25;9.80;;;19.90;73.80;;;;;;5113567;28;20080;-74
2022/08/16 04:50:45;;;;;;;17.75;9.73;;;19.90;73.70;;;;;;5113539;28;20024;-74
2022/08/16 04:53:11;;;;;;;17.42;9.80;;;19.90;73.60;;;;;;5113535;28;20050;-74
2022/08/16 04:55:37;;;;;;;13.57;9.85;;;19.90;73.60;;;;;;5113490;28;20070;-74
2022/08/16 04:58:02;;;;;;;16.08;9.73;;;19.90;73.80;;;;;;5113476;28;20044;-74
2022/08/16 05:00:36;;;;;;;16.17;10.20;;;19.90;73.80;;;;;;5113436;28;20043;-74
2022/08/16 05:03:05;;;;;;;15.32;9.82;;;19.90;73.80;;;;;;5113615;28;20025;-74
2022/08/16 05:05:31;;;;;;;15.27;10.23;;;20.00;73.80;;;;;;5113401;28;20042;-74
2022/08/16 05:07:57;;;;;;;15.98;10.48;;;20.00;73.90;;;;;;5113228;28;20066;-74
2022/08/16 05:10:23;;;;;;;15.07;10.43;;;19.90;74.00;;;;;;5117328;28;20024;-74
2022/08/16 05:12:48;;;;;;;14.77;9.90;;;19.90;74.40;;;;;;5117513;28;20027;-74
2022/08/16 05:15:14;;;;;;;16.88;10.25;;;19.90;74.60;;;;;;5117606;28;20032;-74
2022/08/16 05:17:40;;;;;;;17.40;10.75;;;19.80;74.90;;;;;;5117419;28;20076;-74
2022/08/16 05:20:08;;;;;;;18.27;10.20;;;19.60;75.60;;;;;;5117405;28;20039;-74
2022/08/16 05:22:35;;;;;;;18.35;11.07;;;19.60;76.10;;;;;;5117315;28;20036;-74
2022/08/16 05:25:02;;;;;;;19.30;11.57;;;19.40;76.70;;;;;;5117449;28;20040;-74
2022/08/16 05:27:28;;;;;;;18.77;12.13;;;19.40;77.40;;;;;;5117163;28;20058;-74
2022/08/16 05:29:54;;;;;;;19.70;11.48;;;19.30;77.80;;;;;;5117122;28;20399;-74
2022/08/16 05:32:20;;;;;;;17.67;11.75;;;19.30;78.10;;;;;;5117160;28;20074;-74
2022/08/16 05:34:45;;;;;;;19.25;11.30;;;19.30;78.20;;;;;;5117100;28;20028;-74
2022/08/16 05:37:11;;;;;;;15.60;10.93;;;19.30;78.20;;;;;;5117056;28;20028;-74
2022/08/16 05:39:37;;;;;;;19.40;11.48;;;19.40;78.10;;;;;;5117006;28;20032;-74
2022/08/16 05:42:03;;;;;;;19.27;11.77;;;19.50;77.90;;;;;;5116973;28;20038;-74
2022/08/16 05:44:28;;;;;;;20.85;12.07;;;19.60;77.90;;;;;;5116922;28;20028;-74
2022/08/16 05:46:57;;;;;;;18.95;12.40;;;19.60;78.00;;;;;;5115902;28;20085;-74
2022/08/16 05:49:25;;;;;;;19.85;11.85;;;19.70;78.00;;;;;;5116769;28;20024;-74
2022/08/16 05:51:53;;;;;;;17.90;11.05;;;19.70;77.60;;;;;;5116799;28;20020;-74
2022/08/16 05:54:19;;;;;;;21.05;12.70;;;19.80;77.60;;;;;;5116748;28;20042;-74
2022/08/16 05:56:45;;;;;;;17.48;12.10;;;19.90;77.50;;;;;;5116639;28;20032;-74
2022/08/16 05:59:12;;;;;;;23.65;12.48;;;20.00;77.30;;;;;;5116675;28;20027;-74
2022/08/16 06:01:38;;;;;;;18.95;12.18;;;20.00;77.20;;;;;;5116618;28;20027;-74
2022/08/16 06:04:05;;;;;;;21.92;12.52;;;20.10;77.00;;;;;;5116459;28;20123;-74
2022/08/16 06:06:30;;;;;;;21.27;12.60;;;20.20;77.00;;;;;;5116274;28;20048;-74
2022/08/16 06:08:56;;;;;;;20.52;12.65;;;20.20;76.80;;;;;;5116436;28;20047;-74
2022/08/16 06:11:22;;;;;;;21.48;13.20;;;20.20;77.20;;;;;;5116422;28;20033;-74
2022/08/16 06:13:47;;;;;;;21.02;13.45;;;20.30;76.90;;;;;;5116379;28;20032;-74
2022/08/16 06:16:13;;;;;;;21.77;14.25;;;20.40;76.70;;;;;;5116452;28;20099;-74
2022/08/16 06:18:39;;;;;;;22.83;13.35;;;20.50;76.60;;;;;;5116313;28;20053;-74
2022/08/16 06:21:04;;;;;;;20.63;14.18;;;20.50;76.70;;;;;;5115613;28;20028;-74
2022/08/16 06:23:30;;;;;;;24.25;14.70;;;20.60;77.10;;;;;;5116200;28;20189;-74
2022/08/16 06:25:55;;;;;;;23.23;14.55;;;20.60;76.90;;;;;;5116180;28;20046;-74
2022/08/16 06:28:21;;;;;;;20.30;14.20;;;20.70;76.60;;;;;;5116146;28;20028;-74
2022/08/16 06:30:47;;;;;;;23.38;14.30;;;20.70;76.30;;;;;;5116189;28;20025;-74
2022/08/16 06:33:14;;;;;;;22.33;15.18;;;20.70;76.10;;;;;;5116133;28;20028;-74
2022/08/16 06:35:40;;;;;;;25.85;14.52;;;20.80;76.00;;;;;;5115952;28;20024;-74
2022/08/16 06:38:05;;;;;;;22.30;14.88;;;20.80;76.00;;;;;;5115872;28;20035;-74
2022/08/16 06:40:32;;;;;;;22.30;14.60;;;20.90;75.80;;;;;;5115992;28;20032;-74
2022/08/16 06:42:58;;;;;;;24.83;15.25;;;20.90;75.60;;;;;;5115809;28;20047;-74
2022/08/16 06:45:23;;;;;;;21.70;14.68;;;20.90;75.40;;;;;;5115762;28;20028;-74
2022/08/16 06:47:49;;;;;;;22.90;15.35;;;21.00;75.40;;;;;;5115631;28;20028;-74
2022/08/16 06:50:15;;;;;;;21.13;14.05;;;21.10;74.80;;;;;;5115667;28;20068;-74
2022/08/16 06:52:42;;;;;;;23.75;14.57;;;21.20;74.50;;;;;;5115612;28;20020;-74
2022/08/16 06:55:09;;;;;;;24.38;15.68;;;21.30;74.70;;;;;;5115575;28;20016;-74
2022/08/16 06:57:35;;;;;;;23.88;15.20;;;21.30;74.00;;;;;;5115516;28;20046;-74
2022/08/16 07:00:10;;;;;;;24.52;15.23;;;21.40;74.30;;;;;;5115458;28;20035;-74
2022/08/16 07:02:36;;;;;;;25.23;14.90;;;21.40;74.30;;;;;;5115459;28;20024;-74
2022/08/16 07:05:02;;;;;;;22.27;14.60;;;21.50;73.70;;;;;;5115353;28;20024;-74
2022/08/16 07:07:28;;;;;;;22.38;14.23;;;21.50;72.90;;;;;;5115116;28;20052;-74
2022/08/16 07:09:53;;;;;;;20.73;14.05;;;21.50;73.30;;;;;;5115275;28;20032;-75
2022/08/16 07:12:19;;;;;;;23.27;14.40;;;21.60;73.10;;;;;;5115251;28;20025;-74
2022/08/16 07:14:46;;;;;;;29.52;15.20;;;21.60;73.80;;;;;;5115181;28;20043;-74
2022/08/16 07:17:12;;;;;;;23.90;14.15;;;21.70;72.90;;;;;;5115133;28;20024;-74
2022/08/16 07:19:39;;;;;;;21.98;13.48;;;21.70;72.10;;;;;;5115071;28;20028;-74
2022/08/16 07:22:04;;;;;;;25.77;13.95;;;21.80;72.10;;;;;;5115070;28;20025;-74
2022/08/16 07:24:31;;;;;;;21.08;14.25;;;21.90;72.00;;;;;;5114972;28;20067;-74
2022/08/16 07:26:57;;;;;;;23.40;14.55;;;22.00;72.10;;;;;;5115034;28;20097;-74
2022/08/16 07:29:23;;;;;;;19.30;13.23;;;22.10;71.40;;;;;;5113918;28;20024;-74
2022/08/16 07:31:49;;;;;;;22.80;13.77;;;22.10;70.60;;;;;;5114313;28;20082;-74
2022/08/16 07:34:14;;;;;;;21.15;13.25;;;22.10;70.30;;;;;;5114399;28;20024;-74
2022/08/16 07:36:40;;;;;;;18.90;13.10;;;22.10;69.90;;;;;;5114780;28;20035;-74
2022/08/16 07:39:07;;;;;;;23.73;13.88;;;22.10;69.50;;;;;;5114695;28;20024;-74
2022/08/16 07:41:34;;;;;;;20.15;13.40;;;22.20;69.60;;;;;;5114697;28;20027;-74
2022/08/16 07:44:00;;;;;;;20.65;13.38;;;22.30;69.70;;;;;;5114625;28;20034;-74
2022/08/16 07:46:26;;;;;;;22.55;13.73;;;22.40;69.90;;;;;;5114481;28;20016;-74
2022/08/16 07:48:51;;;;;;;18.98;13.27;;;22.40;69.00;;;;;;5114493;28;20024;-72
2022/08/16 07:51:17;;;;;;;23.05;13.93;;;22.50;68.30;;;;;;5114466;28;20099;-73
2022/08/16 07:53:44;;;;;;;20.35;13.90;;;22.50;68.30;;;;;;5114436;28;20031;-73
2022/08/16 07:56:09;;;;;;;19.95;12.55;;;22.80;68.10;;;;;;5114387;28;20035;-73
2022/08/16 07:58:35;;;;;;;20.88;12.60;;;22.90;68.00;;;;;;5114356;28;20028;-73
2022/08/16 08:01:04;;;;;;;17.35;12.68;;;23.00;67.30;;;;;;5114444;28;20027;-73
2022/08/16 08:03:32;;;;;;;20.05;12.55;;;23.00;67.20;;;;;;5114252;28;20028;-73
2022/08/16 08:05:59;;;;;;;18.90;12.00;;;23.10;67.20;;;;;;5113989;28;20028;-73
2022/08/16 08:08:25;;;;;;;16.30;11.68;;;23.20;65.30;;;;;;5114135;28;20032;-73
2022/08/16 08:10:51;;;;;;;16.92;11.80;;;23.20;65.90;;;;;;5114153;28;20022;-73
2022/08/16 08:13:16;;;;;;;15.52;11.15;;;23.20;64.80;;;;;;5114077;28;20028;-73
2022/08/16 08:15:43;;;;;;;16.88;10.20;;;23.20;64.30;;;;;;5114082;28;20026;-73
2022/08/16 08:18:09;;;;;;;17.23;11.13;;;23.30;64.80;;;;;;5113960;28;20114;-72
2022/08/16 08:20:35;;;;;;;19.33;11.40;;;23.30;64.10;;;;;;5114054;28;20036;-73
2022/08/16 08:23:01;;;;;;;12.82;9.93;;;23.50;64.20;;;;;;5113938;28;20032;-73
2022/08/16 08:25:28;;;;;;;15.90;9.95;;;23.50;63.80;;;;;;5113887;28;20073;-73
2022/08/16 08:27:54;;;;;;;14.90;9.45;;;23.50;62.70;;;;;;5113677;28;20042;-73
2022/08/16 08:30:20;;;;;;;15.10;9.25;;;23.60;62.60;;;;;;5113817;28;20017;-73
2022/08/16 08:32:45;;;;;;;13.50;9.38;;;23.70;62.50;;;;;;5113785;28;20528;-73
2022/08/16 08:35:11;;;;;;;12.18;9.02;;;23.80;61.60;;;;;;5113757;28;20032;-73
2022/08/16 08:37:37;;;;;;;14.75;9.20;;;23.90;61.80;;;;;;5113749;28;20024;-73
2022/08/16 08:40:06;;;;;;;13.63;8.35;;;23.90;60.80;;;;;;5113663;28;20020;-73
2022/08/16 08:42:31;;;;;;;12.05;7.53;;;24.00;60.70;;;;;;5113604;28;20056;-73
2022/08/16 08:44:57;;;;;;;10.57;8.23;;;24.10;58.80;;;;;;5113300;28;20028;-73
2022/08/16 08:47:22;;;;;;;10.63;7.90;;;24.10;58.10;;;;;;5113521;28;20063;-73
2022/08/16 08:49:48;;;;;;;12.45;7.80;;;24.20;59.70;;;;;;5113561;28;20032;-73
2022/08/16 08:52:14;;;;;;;11.88;7.95;;;24.30;59.60;;;;;;5113539;28;20088;-73
2022/08/16 08:54:40;;;;;;;10.93;7.28;;;24.40;58.60;;;;;;5113536;28;20027;-73
2022/08/16 08:57:06;;;;;;;9.90;7.57;;;24.60;56.90;;;;;;5113467;28;20020;-73
2022/08/16 08:59:33;;;;;;;10.68;7.75;;;24.60;57.20;;;;;;5113418;28;20084;-73
2022/08/16 09:01:59;;;;;;;12.88;8.38;;;24.70;57.40;;;;;;5113439;28;20057;-73
2022/08/16 09:04:26;;;;;;;11.50;8.73;;;24.80;57.90;;;;;;5113422;28;20112;-73
2022/08/16 09:06:53;;;;;;;12.35;8.05;;;24.90;58.40;;;;;;5113146;28;20044;-73
2022/08/16 09:09:18;;;;;;;12.15;7.95;;;24.90;58.70;;;;;;5113371;28;20024;-73
2022/08/16 09:11:45;;;;;;;12.07;8.23;;;24.90;57.30;;;;;;5113329;28;20039;-73
2022/08/16 09:14:11;;;;;;;10.27;7.38;;;25.00;57.50;;;;;;5113312;28;20025;-73
2022/08/16 09:16:37;;;;;;;11.50;8.18;;;25.10;57.00;;;;;;5113289;28;20040;-73
2022/08/16 09:19:04;;;;;;;9.95;7.20;;;25.10;57.20;;;;;;5112347;28;20043;-72
2022/08/16 09:21:30;;;;;;;8.93;6.55;;;25.20;55.40;;;;;;5113251;28;20062;-73
2022/08/16 09:23:56;;;;;;;9.70;7.25;;;25.20;55.20;;;;;;5113236;28;20052;-73
2022/08/16 09:26:23;;;;;;;10.70;7.22;;;25.30;55.90;;;;;;5113153;28;20035;-73
2022/08/16 09:28:49;;;;;;;6.95;6.03;;;25.40;55.00;;;;;;5113134;28;20501;-73
2022/08/16 09:31:15;;;;;;;12.02;5.68;;;25.60;55.10;;;;;;5113220;28;20087;-72
2022/08/16 09:33:42;;;;;;;8.20;6.13;;;25.70;54.20;;;;;;5113188;28;20023;-73
2022/08/16 09:36:08;;;;;;;8.02;5.93;;;25.70;52.50;;;;;;5113128;28;20028;-72
2022/08/16 09:38:35;;;;;;;6.82;5.68;;;25.80;51.20;;;;;;5113086;28;20024;-73
2022/08/16 09:41:06;;;;;;;7.88;5.40;;;25.70;52.00;;;;;;5113110;28;20025;-73
2022/08/16 09:43:33;;;;;;;6.50;5.50;;;25.80;52.10;;;;;;5113128;28;20080;-72
2022/08/16 09:46:00;;;;;;;6.18;5.30;;;25.90;52.00;;;;;;5112983;28;20049;-73
2022/08/16 09:48:27;;;;;;;8.55;5.05;;;26.00;51.60;;;;;;5113048;28;20028;-72
2022/08/16 09:50:53;;;;;;;8.55;6.63;;;26.10;52.40;;;;;;5113159;28;20028;-73
2022/08/16 09:53:21;;;;;;;7.05;5.75;;;26.20;52.20;;;;;;5113116;28;20020;-73
2022/08/16 09:55:51;;;;;;;7.45;5.68;;;26.20;50.10;;;;;;5113890;28;20016;-73
2022/08/16 09:58:25;;;;;;;8.27;5.75;;;26.20;50.60;;;;;;5116704;28;20024;-73
2022/08/16 10:00:51;;;;;;;8.20;5.63;;;26.40;51.30;;;;;;5116717;28;20024;-73
2022/08/16 10:03:18;;;;;;;8.57;5.50;;;26.40;50.70;;;;;;5116572;28;20149;-73
2022/08/16 10:05:44;;;;;;;7.57;6.40;;;26.40;48.80;;;;;;5116484;28;20024;-73
2022/08/16 10:08:10;;;;;;;8.63;5.88;;;26.50;49.30;;;;;;5116412;28;20040;-72
2022/08/16 10:10:40;;;;;;;8.57;7.05;;;26.60;50.80;;;;;;5116437;28;20024;-73
2022/08/16 10:13:13;;;;;;;8.80;5.90;;;26.70;48.90;;;;;;5116433;28;20016;-73
2022/08/16 10:15:41;;;;;;;7.28;6.45;;;26.80;50.10;;;;;;5116424;28;20027;-73
2022/08/16 10:18:11;;;;;;;8.23;5.80;;;26.90;49.70;;;;;;5116329;28;20030;-73
2022/08/16 10:20:41;;;;;;;7.30;6.35;;;26.90;49.80;;;;;;5116354;28;20020;-73
2022/08/16 10:23:09;;;;;;;7.65;6.28;;;27.10;50.00;;;;;;5116265;28;20016;-73
2022/08/16 10:25:38;;;;;;;7.90;6.30;;;27.20;48.80;;;;;;5116191;28;20022;-73
2022/08/16 10:28:04;;;;;;;9.38;6.70;;;27.20;49.30;;;;;;5116017;28;20020;-73
2022/08/16 10:30:30;;;;;;;8.98;6.55;;;27.20;48.00;;;;;;5116067;28;20024;-73
2022/08/16 10:32:56;;;;;;;6.97;5.97;;;27.30;48.60;;;;;;5116017;28;20040;-73
2022/08/16 10:35:22;;;;;;;9.85;6.40;;;27.20;48.80;;;;;;5115964;28;20023;-73
2022/08/16 10:37:48;;;;;;;9.70;6.47;;;27.30;49.10;;;;;;5115909;28;20031;-73
2022/08/16 10:40:14;;;;;;;7.97;6.53;;;27.20;48.80;;;;;;5115918;28;20032;-73
2022/08/16 10:42:39;;;;;;;7.90;6.43;;;27.30;47.80;;;;;;5115822;28;20036;-72
2022/08/16 10:45:06;;;;;;;7.45;5.88;;;27.40;46.00;;;;;;5115794;28;20028;-73
2022/08/16 10:47:31;;;;;;;8.43;5.90;;;27.40;46.20;;;;;;5115673;28;20028;-73
2022/08/16 10:49:58;;;;;;;7.63;6.30;;;27.50;45.20;;;;;;5115708;28;20038;-73
2022/08/16 10:52:24;;;;;;;7.15;5.85;;;27.60;46.30;;;;;;5115632;28;20023;-73
2022/08/16 10:54:50;;;;;;;11.20;6.60;;;27.70;45.80;;;;;;5115603;28;20024;-73
2022/08/16 10:57:15;;;;;;;10.75;6.38;;;27.80;45.40;;;;;;5115518;28;20029;-73
2022/08/16 10:59:41;;;;;;;10.20;5.85;;;27.80;44.50;;;;;;5115518;28;20076;-73
2022/08/16 11:02:10;;;;;;;7.30;5.75;;;27.80;44.50;;;;;;5115458;28;20025;-72
2022/08/16 11:04:36;;;;;;;6.35;5.43;;;27.90;44.80;;;;;;5115417;28;20075;-73
2022/08/16 11:07:03;;;;;;;6.10;5.50;;;28.00;44.00;;;;;;5114972;28;20036;-73
2022/08/16 11:09:29;;;;;;;8.02;6.07;;;28.00;44.20;;;;;;5115314;28;20103;-73
2022/08/16 11:11:55;;;;;;;7.53;6.00;;;28.10;42.90;;;;;;5115244;28;20047;-73
2022/08/16 11:14:23;;;;;;;5.43;4.80;;;28.10;43.20;;;;;;5115278;28;20063;-73
2022/08/16 11:16:49;;;;;;;13.45;5.47;;;28.20;43.70;;;;;;5115193;28;20024;-73
2022/08/16 11:19:15;;;;;;;7.68;5.38;;;28.20;43.70;;;;;;5115112;28;20043;-73
2022/08/16 11:21:42;;;;;;;7.82;5.25;;;28.30;42.70;;;;;;5115074;28;20084;-73
2022/08/16 11:24:08;;;;;;;7.60;5.65;;;28.30;42.80;;;;;;5114203;28;20064;-73
2022/08/16 11:26:33;;;;;;;7.20;5.60;;;28.30;42.90;;;;;;5114909;28;20035;-73
2022/08/16 11:28:59;;;;;;;5.93;5.32;;;28.50;43.40;;;;;;5113901;28;20028;-73
2022/08/16 11:31:25;;;;;;;7.93;5.45;;;28.50;42.40;;;;;;5114919;28;20050;-73
2022/08/16 11:33:51;;;;;;;6.20;5.45;;;28.60;42.80;;;;;;5114838;28;20498;-73
2022/08/16 11:36:18;;;;;;;6.97;5.07;;;28.70;41.70;;;;;;5114764;28;20031;-73
2022/08/16 11:38:45;;;;;;;8.18;5.03;;;28.70;42.30;;;;;;5114799;28;20031;-73
2022/08/16 11:41:11;;;;;;;6.93;5.20;;;28.80;42.00;;;;;;5114714;28;20027;-73
2022/08/16 11:43:40;;;;;;;7.18;5.20;;;28.90;41.40;;;;;;5114639;28;20028;-73
2022/08/16 11:46:09;;;;;;;5.55;4.38;;;28.90;41.20;;;;;;5114517;28;20016;-73
2022/08/16 11:48:35;;;;;;;7.85;4.55;;;28.80;39.80;;;;;;5114523;28;20022;-73
2022/08/16 11:51:02;;;;;;;8.93;5.18;;;28.80;40.20;;;;;;5113583;28;20052;-73
2022/08/16 11:53:31;;;;;;;7.30;4.80;;;28.70;39.30;;;;;;5114515;28;20024;-72
2022/08/16 11:55:57;;;;;;;7.43;4.65;;;28.60;39.20;;;;;;5113447;28;20016;-72
2022/08/16 11:58:24;;;;;;;8.77;4.40;;;28.50;39.10;;;;;;5113483;28;20024;-72
2022/08/16 12:00:51;;;;;;;6.65;5.18;;;28.60;39.60;;;;;;5114342;28;20016;-72
2022/08/16 12:03:18;;;;;;;5.95;4.60;;;28.50;39.90;;;;;;5114321;28;20506;-72
2022/08/16 12:05:45;;;;;;;6.85;4.63;;;28.40;39.00;;;;;;5113182;28;20483;-72
2022/08/16 12:08:11;;;;;;;7.25;5.40;;;28.30;39.40;;;;;;5114066;28;20050;-73
2022/08/16 12:10:38;;;;;;;7.80;4.85;;;28.30;40.10;;;;;;5113177;28;20028;-72
2022/08/16 12:13:08;;;;;;;8.13;4.97;;;28.30;40.00;;;;;;5096302;28;20031;-73
2022/08/16 12:15:34;;;;;;;6.70;4.90;;;28.30;39.90;;;;;;5113342;28;20055;-73
2022/08/16 12:18:01;;;;;;;6.80;4.90;;;28.20;39.70;;;;;;5112784;28;20395;-73
2022/08/16 12:20:31;;;;;;;7.63;4.88;;;28.20;40.50;;;;;;5113867;28;20024;-73
2022/08/16 12:22:56;;;;;;;8.07;4.82;;;28.20;40.70;;;;;;5113931;28;20532;-73
2022/08/16 12:25:24;;;;;;;7.80;5.18;;;28.10;40.20;;;;;;5113919;28;20032;-73
2022/08/16 12:27:50;;;;;;;7.65;5.10;;;28.00;40.00;;;;;;5113743;28;20032;-73
2022/08/16 12:30:20;;;;;;;6.35;4.78;;;28.00;40.80;;;;;;5113841;28;20028;-73
2022/08/16 12:32:46;;;;;;;7.00;4.28;;;28.10;40.80;;;;;;5113835;28;20024;-73